Terminal Aerodrome Forecast
Issued by NWS

Home | Current Version | Previous Version | Text Only | Print | Product List | Glossary On
Versions: 1 2 3 4 5 6 7 8 9 10 11 12 13 14 15 16 17 18 19 20 21 22 23
000
FTUS43 KLSX 201100
TAFSUS
TAF
KSUS 201130Z 2012/2112 00000KT 3SM BCFG SCT250
      TEMPO 2012/2013 2SM BR
     FM201400 24010KT P6SM FEW040 SCT250
     FM210300 24008KT P6SM VCTS SCT040CB BKN100
     FM210800 30010KT P6SM BKN040=

USA.gov is the U.S. government's official web portal to all federal, state and local government web resources and services.